sensor_id;sensor_type;location;lat;lon;timestamp;P1;durP1;ratioP1;P2;durP2;ratioP2
19653;SDS011;9975;48.046;7.804;2023-04-03T01:56:44;2.05;;;1.77;;
19653;SDS011;9975;48.046;7.804;2023-04-03T01:59:10;3.63;;;2.47;;
19653;SDS011;9975;48.046;7.804;2023-04-03T02:01:35;3.47;;;2.70;;
19653;SDS011;9975;48.046;7.804;2023-04-03T02:04:01;4.00;;;2.90;;
19653;SDS011;9975;48.046;7.804;2023-04-03T02:06:27;3.67;;;2.10;;
19653;SDS011;9975;48.046;7.804;2023-04-03T02:08:52;2.27;;;2.07;;
19653;SDS011;9975;48.046;7.804;2023-04-03T02:11:18;4.10;;;2.40;;
19653;SDS011;9975;48.046;7.804;2023-04-03T02:13:43;4.03;;;2.27;;
19653;SDS011;9975;48.046;7.804;2023-04-03T02:16:09;3.37;;;1.97;;
19653;SDS011;9975;48.046;7.804;2023-04-03T02:18:36;2.30;;;2.17;;
19653;SDS011;9975;48.046;7.804;2023-04-03T02:21:03;7.63;;;2.13;;
19653;SDS011;9975;48.046;7.804;2023-04-03T02:23:28;2.63;;;2.23;;
19653;SDS011;9975;48.046;7.804;2023-04-03T02:26:02;3.40;;;2.20;;
19653;SDS011;9975;48.046;7.804;2023-04-03T02:28:29;2.60;;;2.33;;
19653;SDS011;9975;48.046;7.804;2023-04-03T02:30:54;2.70;;;2.50;;
19653;SDS011;9975;48.046;7.804;2023-04-03T02:33:21;2.95;;;2.30;;
19653;SDS011;9975;48.046;7.804;2023-04-03T02:35:47;3.97;;;2.90;;
19653;SDS011;9975;48.046;7.804;2023-04-03T02:38:18;4.60;;;2.47;;
19653;SDS011;9975;48.046;7.804;2023-04-03T02:40:43;3.80;;;2.80;;
19653;SDS011;9975;48.046;7.804;2023-04-03T02:43:09;2.47;;;2.00;;
19653;SDS011;9975;48.046;7.804;2023-04-03T02:45:35;2.73;;;2.23;;
19653;SDS011;9975;48.046;7.804;2023-04-03T02:48:00;4.33;;;3.20;;
19653;SDS011;9975;48.046;7.804;2023-04-03T02:50:26;2.10;;;1.90;;
19653;SDS011;9975;48.046;7.804;2023-04-03T02:52:52;2.53;;;2.10;;
19653;SDS011;9975;48.046;7.804;2023-04-03T02:55:17;2.93;;;2.40;;
19653;SDS011;9975;48.046;7.804;2023-04-03T02:57:43;3.80;;;2.30;;
19653;SDS011;9975;48.046;7.804;2023-04-03T03:00:08;4.90;;;2.53;;
19653;SDS011;9975;48.046;7.804;2023-04-03T03:02:34;2.40;;;2.20;;
19653;SDS011;9975;48.046;7.804;2023-04-03T03:05:00;2.17;;;1.97;;
19653;SDS011;9975;48.046;7.804;2023-04-03T03:07:26;2.37;;;2.13;;
19653;SDS011;9975;48.046;7.804;2023-04-03T03:09:52;3.33;;;2.60;;
19653;SDS011;9975;48.046;7.804;2023-04-03T03:12:17;2.70;;;2.50;;
19653;SDS011;9975;48.046;7.804;2023-04-03T03:14:47;4.33;;;2.00;;
19653;SDS011;9975;48.046;7.804;2023-04-03T03:17:13;2.00;;;1.80;;
19653;SDS011;9975;48.046;7.804;2023-04-03T03:19:38;3.17;;;2.43;;
19653;SDS011;9975;48.046;7.804;2023-04-03T03:22:04;2.57;;;2.37;;
19653;SDS011;9975;48.046;7.804;2023-04-03T03:24:30;3.53;;;2.80;;
19653;SDS011;9975;48.046;7.804;2023-04-03T03:26:55;2.90;;;2.30;;
19653;SDS011;9975;48.046;7.804;2023-04-03T03:29:21;2.73;;;2.03;;
19653;SDS011;9975;48.046;7.804;2023-04-03T03:31:47;2.30;;;2.10;;
19653;SDS011;9975;48.046;7.804;2023-04-03T03:34:12;2.23;;;2.03;;
19653;SDS011;9975;48.046;7.804;2023-04-03T03:36:38;2.70;;;2.10;;
19653;SDS011;9975;48.046;7.804;2023-04-03T03:39:04;2.13;;;1.88;;
19653;SDS011;9975;48.046;7.804;2023-04-03T03:41:30;5.27;;;2.60;;
19653;SDS011;9975;48.046;7.804;2023-04-03T03:43:56;4.47;;;3.03;;
19653;SDS011;9975;48.046;7.804;2023-04-03T03:46:21;2.60;;;2.40;;
19653;SDS011;9975;48.046;7.804;2023-04-03T03:48:47;3.63;;;2.20;;
19653;SDS011;9975;48.046;7.804;2023-04-03T03:51:13;2.50;;;2.30;;
19653;SDS011;9975;48.046;7.804;2023-04-03T03:53:38;3.20;;;2.33;;
19653;SDS011;9975;48.046;7.804;2023-04-03T03:56:04;2.03;;;1.83;;
19653;SDS011;9975;48.046;7.804;2023-04-03T03:58:30;5.70;;;2.30;;
19653;SDS011;9975;48.046;7.804;2023-04-03T04:01:00;2.80;;;1.85;;
19653;SDS011;9975;48.046;7.804;2023-04-03T04:03:30;2.40;;;1.77;;
19653;SDS011;9975;48.046;7.804;2023-04-03T04:05:56;3.13;;;1.60;;
19653;SDS011;9975;48.046;7.804;2023-04-03T04:08:22;3.37;;;2.07;;
19653;SDS011;9975;48.046;7.804;2023-04-03T04:10:47;2.57;;;2.40;;
19653;SDS011;9975;48.046;7.804;2023-04-03T04:13:13;2.00;;;1.90;;
19653;SDS011;9975;48.046;7.804;2023-04-03T04:15:39;2.20;;;2.00;;
19653;SDS011;9975;48.046;7.804;2023-04-03T04:18:05;4.53;;;1.90;;
19653;SDS011;9975;48.046;7.804;2023-04-03T04:20:31;2.53;;;2.33;;
19653;SDS011;9975;48.046;7.804;2023-04-03T04:22:56;2.20;;;2.00;;
19653;SDS011;9975;48.046;7.804;2023-04-03T04:25:22;3.60;;;2.20;;
19653;SDS011;9975;48.046;7.804;2023-04-03T04:27:47;2.60;;;2.40;;
19653;SDS011;9975;48.046;7.804;2023-04-03T04:30:13;3.17;;;2.60;;
19653;SDS011;9975;48.046;7.804;2023-04-03T04:32:39;2.43;;;2.20;;
19653;SDS011;9975;48.046;7.804;2023-04-03T04:35:04;3.47;;;2.80;;
19653;SDS011;9975;48.046;7.804;2023-04-03T04:37:30;2.60;;;2.40;;
19653;SDS011;9975;48.046;7.804;2023-04-03T04:39:56;3.70;;;2.70;;
19653;SDS011;9975;48.046;7.804;2023-04-03T04:42:23;5.07;;;2.23;;
19653;SDS011;9975;48.046;7.804;2023-04-03T04:44:49;2.73;;;2.10;;
19653;SDS011;9975;48.046;7.804;2023-04-03T04:47:15;2.73;;;2.40;;
19653;SDS011;9975;48.046;7.804;2023-04-03T04:49:40;2.70;;;2.50;;
19653;SDS011;9975;48.046;7.804;2023-04-03T04:52:06;4.00;;;2.47;;
19653;SDS011;9975;48.046;7.804;2023-04-03T04:54:32;4.27;;;2.97;;
19653;SDS011;9975;48.046;7.804;2023-04-03T04:56:57;3.17;;;2.70;;
19653;SDS011;9975;48.046;7.804;2023-04-03T04:59:23;3.17;;;2.40;;
19653;SDS011;9975;48.046;7.804;2023-04-03T05:01:49;3.60;;;2.70;;
19653;SDS011;9975;48.046;7.804;2023-04-03T05:04:15;3.90;;;2.63;;
19653;SDS011;9975;48.046;7.804;2023-04-03T05:06:41;3.28;;;2.70;;
19653;SDS011;9975;48.046;7.804;2023-04-03T05:09:14;3.50;;;2.90;;
19653;SDS011;9975;48.046;7.804;2023-04-03T05:11:39;3.00;;;2.33;;
19653;SDS011;9975;48.046;7.804;2023-04-03T05:14:05;3.13;;;2.60;;
19653;SDS011;9975;48.046;7.804;2023-04-03T05:16:31;3.03;;;2.47;;
19653;SDS011;9975;48.046;7.804;2023-04-03T05:18:57;5.80;;;3.30;;
19653;SDS011;9975;48.046;7.804;2023-04-03T05:21:23;3.23;;;2.80;;
19653;SDS011;9975;48.046;7.804;2023-04-03T05:23:51;4.97;;;2.87;;
19653;SDS011;9975;48.046;7.804;2023-04-03T05:26:16;3.57;;;2.57;;
19653;SDS011;9975;48.046;7.804;2023-04-03T05:28:42;4.83;;;2.80;;
19653;SDS011;9975;48.046;7.804;2023-04-03T05:31:08;4.63;;;3.00;;
19653;SDS011;9975;48.046;7.804;2023-04-03T05:33:34;5.00;;;2.80;;
19653;SDS011;9975;48.046;7.804;2023-04-03T05:36:06;3.53;;;3.17;;
19653;SDS011;9975;48.046;7.804;2023-04-03T05:38:32;5.27;;;2.90;;
19653;SDS011;9975;48.046;7.804;2023-04-03T05:40:57;4.67;;;3.23;;
19653;SDS011;9975;48.046;7.804;2023-04-03T05:43:23;3.13;;;2.53;;
19653;SDS011;9975;48.046;7.804;2023-04-03T05:45:50;3.30;;;3.00;;
19653;SDS011;9975;48.046;7.804;2023-04-03T05:48:16;3.50;;;2.43;;
19653;SDS011;9975;48.046;7.804;2023-04-03T05:50:41;2.87;;;2.67;;
19653;SDS011;9975;48.046;7.804;2023-04-03T05:53:12;5.97;;;3.40;;
19653;SDS011;9975;48.046;7.804;2023-04-03T05:55:47;4.13;;;3.40;;
19653;SDS011;9975;48.046;7.804;2023-04-03T05:58:14;3.93;;;3.63;;
19653;SDS011;9975;48.046;7.804;2023-04-03T06:00:40;4.77;;;2.77;;
19653;SDS011;9975;48.046;7.804;2023-04-03T06:03:06;2.73;;;2.50;;
19653;SDS011;9975;48.046;7.804;2023-04-03T06:05:31;6.80;;;3.30;;
19653;SDS011;9975;48.046;7.804;2023-04-03T06:07:57;4.33;;;3.20;;
19653;SDS011;9975;48.046;7.804;2023-04-03T06:10:23;3.57;;;2.67;;
19653;SDS011;9975;48.046;7.804;2023-04-03T06:12:48;3.33;;;2.53;;
19653;SDS011;9975;48.046;7.804;2023-04-03T06:15:15;2.73;;;2.53;;
19653;SDS011;9975;48.046;7.804;2023-04-03T06:17:42;3.50;;;3.20;;
19653;SDS011;9975;48.046;7.804;2023-04-03T06:20:07;4.70;;;3.03;;
19653;SDS011;9975;48.046;7.804;2023-04-03T06:22:34;5.47;;;3.27;;
19653;SDS011;9975;48.046;7.804;2023-04-03T06:25:00;3.60;;;3.13;;
19653;SDS011;9975;48.046;7.804;2023-04-03T06:27:26;5.80;;;2.83;;
19653;SDS011;9975;48.046;7.804;2023-04-03T06:29:52;3.23;;;2.90;;
19653;SDS011;9975;48.046;7.804;2023-04-03T06:32:18;4.13;;;2.80;;
19653;SDS011;9975;48.046;7.804;2023-04-03T06:34:43;2.80;;;2.60;;
19653;SDS011;9975;48.046;7.804;2023-04-03T06:37:16;5.60;;;3.10;;
19653;SDS011;9975;48.046;7.804;2023-04-03T06:39:43;3.67;;;2.80;;
19653;SDS011;9975;48.046;7.804;2023-04-03T06:42:10;2.47;;;2.27;;
19653;SDS011;9975;48.046;7.804;2023-04-03T06:44:36;7.13;;;3.03;;
19653;SDS011;9975;48.046;7.804;2023-04-03T06:47:02;4.33;;;2.97;;
19653;SDS011;9975;48.046;7.804;2023-04-03T06:49:29;3.20;;;2.60;;
19653;SDS011;9975;48.046;7.804;2023-04-03T06:51:55;4.57;;;1.90;;
19653;SDS011;9975;48.046;7.804;2023-04-03T06:57:28;3.50;;;2.07;;
19653;SDS011;9975;48.046;7.804;2023-04-03T06:59:54;3.80;;;2.50;;
19653;SDS011;9975;48.046;7.804;2023-04-03T07:02:20;2.43;;;2.23;;
19653;SDS011;9975;48.046;7.804;2023-04-03T07:04:46;3.10;;;2.40;;
19653;SDS011;9975;48.046;7.804;2023-04-03T07:07:12;2.47;;;2.07;;
19653;SDS011;9975;48.046;7.804;2023-04-03T07:09:38;2.30;;;2.00;;
19653;SDS011;9975;48.046;7.804;2023-04-03T07:12:03;2.20;;;2.00;;
19653;SDS011;9975;48.046;7.804;2023-04-03T07:14:29;10.13;;;2.17;;
19653;SDS011;9975;48.046;7.804;2023-04-03T07:16:57;2.00;;;1.77;;
19653;SDS011;9975;48.046;7.804;2023-04-03T07:19:22;1.77;;;1.63;;
19653;SDS011;9975;48.046;7.804;2023-04-03T07:21:49;2.73;;;2.47;;
19653;SDS011;9975;48.046;7.804;2023-04-03T07:24:15;2.63;;;2.43;;
19653;SDS011;9975;48.046;7.804;2023-04-03T07:26:40;2.77;;;2.03;;
19653;SDS011;9975;48.046;7.804;2023-04-03T07:29:06;2.83;;;1.87;;
19653;SDS011;9975;48.046;7.804;2023-04-03T07:31:32;1.93;;;1.73;;
19653;SDS011;9975;48.046;7.804;2023-04-03T07:33:58;2.50;;;1.50;;
19653;SDS011;9975;48.046;7.804;2023-04-03T07:36:24;2.10;;;1.80;;
19653;SDS011;9975;48.046;7.804;2023-04-03T07:38:50;2.10;;;1.87;;
19653;SDS011;9975;48.046;7.804;2023-04-03T07:41:16;2.40;;;1.47;;
19653;SDS011;9975;48.046;7.804;2023-04-03T07:43:44;1.60;;;1.50;;
19653;SDS011;9975;48.046;7.804;2023-04-03T07:46:12;2.07;;;1.50;;
19653;SDS011;9975;48.046;7.804;2023-04-03T07:48:38;1.83;;;1.60;;
19653;SDS011;9975;48.046;7.804;2023-04-03T07:51:04;2.00;;;1.60;;
19653;SDS011;9975;48.046;7.804;2023-04-03T07:53:30;1.90;;;1.63;;
19653;SDS011;9975;48.046;7.804;2023-04-03T07:55:58;2.10;;;1.63;;
19653;SDS011;9975;48.046;7.804;2023-04-03T07:58:24;2.17;;;1.70;;
19653;SDS011;9975;48.046;7.804;2023-04-03T08:00:50;1.40;;;1.30;;
19653;SDS011;9975;48.046;7.804;2023-04-03T08:03:19;2.20;;;1.80;;
19653;SDS011;9975;48.046;7.804;2023-04-03T08:05:45;3.87;;;2.07;;
19653;SDS011;9975;48.046;7.804;2023-04-03T08:08:14;2.13;;;2.00;;
19653;SDS011;9975;48.046;7.804;2023-04-03T08:10:41;2.10;;;1.63;;
19653;SDS011;9975;48.046;7.804;2023-04-03T08:13:07;2.03;;;1.63;;
19653;SDS011;9975;48.046;7.804;2023-04-03T08:15:33;1.53;;;1.20;;
19653;SDS011;9975;48.046;7.804;2023-04-03T08:17:59;3.67;;;1.33;;
19653;SDS011;9975;48.046;7.804;2023-04-03T08:20:26;3.70;;;1.70;;
19653;SDS011;9975;48.046;7.804;2023-04-03T08:22:51;2.23;;;1.63;;
19653;SDS011;9975;48.046;7.804;2023-04-03T08:25:17;2.37;;;2.13;;
19653;SDS011;9975;48.046;7.804;2023-04-03T08:27:43;2.13;;;1.73;;
19653;SDS011;9975;48.046;7.804;2023-04-03T08:30:10;1.93;;;1.80;;
19653;SDS011;9975;48.046;7.804;2023-04-03T08:32:36;2.30;;;2.10;;
19653;SDS011;9975;48.046;7.804;2023-04-03T08:35:03;2.07;;;1.67;;
19653;SDS011;9975;48.046;7.804;2023-04-03T08:37:29;2.60;;;2.10;;
19653;SDS011;9975;48.046;7.804;2023-04-03T08:39:55;2.57;;;2.27;;
19653;SDS011;9975;48.046;7.804;2023-04-03T08:45:15;2.17;;;1.80;;
19653;SDS011;9975;48.046;7.804;2023-04-03T08:47:57;1.70;;;1.60;;
19653;SDS011;9975;48.046;7.804;2023-04-03T08:50:36;4.00;;;2.13;;
19653;SDS011;9975;48.046;7.804;2023-04-03T08:53:05;2.60;;;1.87;;
19653;SDS011;9975;48.046;7.804;2023-04-03T08:55:45;2.07;;;1.87;;
19653;SDS011;9975;48.046;7.804;2023-04-03T08:58:12;2.33;;;1.50;;
19653;SDS011;9975;48.046;7.804;2023-04-03T09:03:20;1.77;;;1.40;;
19653;SDS011;9975;48.046;7.804;2023-04-03T09:05:51;2.27;;;2.10;;
19653;SDS011;9975;48.046;7.804;2023-04-03T09:08:40;3.93;;;1.90;;
19653;SDS011;9975;48.046;7.804;2023-04-03T09:11:24;2.37;;;2.17;;
19653;SDS011;9975;48.046;7.804;2023-04-03T09:16:47;1.93;;;1.80;;
19653;SDS011;9975;48.046;7.804;2023-04-03T09:19:27;1.60;;;1.50;;
19653;SDS011;9975;48.046;7.804;2023-04-03T09:21:53;2.70;;;2.47;;
19653;SDS011;9975;48.046;7.804;2023-04-03T09:24:45;2.43;;;2.13;;
19653;SDS011;9975;48.046;7.804;2023-04-03T09:27:15;3.23;;;2.00;;
19653;SDS011;9975;48.046;7.804;2023-04-03T09:29:41;2.17;;;1.97;;
19653;SDS011;9975;48.046;7.804;2023-04-03T09:32:27;4.07;;;2.77;;
19653;SDS011;9975;48.046;7.804;2023-04-03T09:35:15;2.17;;;1.97;;
19653;SDS011;9975;48.046;7.804;2023-04-03T09:37:53;2.20;;;2.00;;
19653;SDS011;9975;48.046;7.804;2023-04-03T09:42:51;2.80;;;1.80;;
19653;SDS011;9975;48.046;7.804;2023-04-03T09:45:22;1.60;;;1.40;;
19653;SDS011;9975;48.046;7.804;2023-04-03T09:51:01;2.20;;;1.40;;
19653;SDS011;9975;48.046;7.804;2023-04-03T09:53:40;1.40;;;1.30;;
19653;SDS011;9975;48.046;7.804;2023-04-03T09:58:46;1.77;;;1.63;;
19653;SDS011;9975;48.046;7.804;2023-04-03T10:01:22;1.57;;;1.40;;
19653;SDS011;9975;48.046;7.804;2023-04-03T10:09:13;2.30;;;1.73;;
19653;SDS011;9975;48.046;7.804;2023-04-03T10:12:07;1.77;;;1.40;;
19653;SDS011;9975;48.046;7.804;2023-04-03T10:14:38;3.27;;;2.00;;
19653;SDS011;9975;48.046;7.804;2023-04-03T10:19:57;1.57;;;1.40;;
19653;SDS011;9975;48.046;7.804;2023-04-03T10:40:01;2.10;;;1.40;;
19653;SDS011;9975;48.046;7.804;2023-04-03T10:43:09;1.90;;;1.20;;
19653;SDS011;9975;48.046;7.804;2023-04-03T10:45:56;1.80;;;1.37;;
19653;SDS011;9975;48.046;7.804;2023-04-03T10:51:15;2.70;;;1.30;;
19653;SDS011;9975;48.046;7.804;2023-04-03T10:54:05;3.43;;;1.60;;
19653;SDS011;9975;48.046;7.804;2023-04-03T11:02:19;2.10;;;1.60;;
19653;SDS011;9975;48.046;7.804;2023-04-03T11:04:48;1.83;;;1.27;;
19653;SDS011;9975;48.046;7.804;2023-04-03T11:07:26;1.63;;;1.33;;
19653;SDS011;9975;48.046;7.804;2023-04-03T11:10:12;1.33;;;1.23;;
19653;SDS011;9975;48.046;7.804;2023-04-03T11:13:08;1.47;;;1.00;;
19653;SDS011;9975;48.046;7.804;2023-04-03T11:15:38;1.63;;;1.13;;
19653;SDS011;9975;48.046;7.804;2023-04-03T11:18:06;1.80;;;1.70;;
19653;SDS011;9975;48.046;7.804;2023-04-03T11:20:36;3.43;;;1.73;;
19653;SDS011;9975;48.046;7.804;2023-04-03T11:23:08;1.83;;;1.73;;
19653;SDS011;9975;48.046;7.804;2023-04-03T11:25:42;1.60;;;1.33;;
19653;SDS011;9975;48.046;7.804;2023-04-03T11:28:13;1.57;;;1.47;;
19653;SDS011;9975;48.046;7.804;2023-04-03T11:30:46;1.43;;;1.33;;
19653;SDS011;9975;48.046;7.804;2023-04-03T11:36:26;1.10;;;1.10;;
19653;SDS011;9975;48.046;7.804;2023-04-03T11:38:57;1.30;;;1.17;;
19653;SDS011;9975;48.046;7.804;2023-04-03T11:41:32;1.53;;;1.40;;
19653;SDS011;9975;48.046;7.804;2023-04-03T11:44:44;1.87;;;1.50;;
19653;SDS011;9975;48.046;7.804;2023-04-03T11:46:56;1.70;;;1.50;;
19653;SDS011;9975;48.046;7.804;2023-04-03T12:13:40;1.43;;;1.33;;
19653;SDS011;9975;48.046;7.804;2023-04-03T12:16:06;1.80;;;1.53;;
19653;SDS011;9975;48.046;7.804;2023-04-03T12:22:04;1.57;;;1.47;;
19653;SDS011;9975;48.046;7.804;2023-04-03T12:37:37;1.80;;;1.70;;
19653;SDS011;9975;48.046;7.804;2023-04-03T12:46:14;2.60;;;1.47;;
19653;SDS011;9975;48.046;7.804;2023-04-03T12:48:53;3.97;;;3.63;;
19653;SDS011;9975;48.046;7.804;2023-04-03T12:51:21;6.43;;;4.17;;
19653;SDS011;9975;48.046;7.804;2023-04-03T13:40:58;5.10;;;2.40;;
19653;SDS011;9975;48.046;7.804;2023-04-03T13:43:28;1.90;;;1.70;;
19653;SDS011;9975;48.046;7.804;2023-04-03T13:46:22;1.60;;;1.23;;
19653;SDS011;9975;48.046;7.804;2023-04-03T13:48:51;2.30;;;1.33;;
19653;SDS011;9975;48.046;7.804;2023-04-03T13:53:51;3.17;;;2.17;;
19653;SDS011;9975;48.046;7.804;2023-04-03T13:56:26;1.37;;;1.27;;
19653;SDS011;9975;48.046;7.804;2023-04-03T13:59:23;1.90;;;1.50;;
19653;SDS011;9975;48.046;7.804;2023-04-03T14:04:28;2.80;;;1.63;;
19653;SDS011;9975;48.046;7.804;2023-04-03T14:06:56;1.40;;;1.30;;
19653;SDS011;9975;48.046;7.804;2023-04-03T14:09:22;4.23;;;1.30;;
19653;SDS011;9975;48.046;7.804;2023-04-03T14:11:50;1.27;;;1.17;;
19653;SDS011;9975;48.046;7.804;2023-04-03T14:14:23;1.50;;;1.40;;
19653;SDS011;9975;48.046;7.804;2023-04-03T14:16:54;1.70;;;1.57;;
19653;SDS011;9975;48.046;7.804;2023-04-03T14:21:52;2.30;;;1.37;;
19653;SDS011;9975;48.046;7.804;2023-04-03T14:24:19;1.53;;;1.40;;
19653;SDS011;9975;48.046;7.804;2023-04-03T14:26:46;2.10;;;1.67;;
19653;SDS011;9975;48.046;7.804;2023-04-03T14:29:13;2.07;;;1.70;;
19653;SDS011;9975;48.046;7.804;2023-04-03T14:31:40;1.47;;;1.13;;
19653;SDS011;9975;48.046;7.804;2023-04-03T14:34:06;2.70;;;1.60;;
19653;SDS011;9975;48.046;7.804;2023-04-03T14:36:32;1.60;;;1.50;;
19653;SDS011;9975;48.046;7.804;2023-04-03T14:38:58;1.33;;;1.10;;
19653;SDS011;9975;48.046;7.804;2023-04-03T14:41:26;2.27;;;1.70;;
19653;SDS011;9975;48.046;7.804;2023-04-03T14:43:53;1.17;;;1.07;;
19653;SDS011;9975;48.046;7.804;2023-04-03T14:46:23;1.60;;;1.23;;
19653;SDS011;9975;48.046;7.804;2023-04-03T14:49:01;1.70;;;1.60;;
19653;SDS011;9975;48.046;7.804;2023-04-03T14:51:27;2.67;;;1.13;;
19653;SDS011;9975;48.046;7.804;2023-04-03T14:53:53;2.30;;;1.50;;
19653;SDS011;9975;48.046;7.804;2023-04-03T14:56:29;2.33;;;1.50;;
19653;SDS011;9975;48.046;7.804;2023-04-03T14:58:59;1.93;;;1.10;;
19653;SDS011;9975;48.046;7.804;2023-04-03T15:01:26;1.70;;;1.50;;
19653;SDS011;9975;48.046;7.804;2023-04-03T15:03:53;1.30;;;1.30;;
19653;SDS011;9975;48.046;7.804;2023-04-03T15:06:20;1.70;;;1.60;;
19653;SDS011;9975;48.046;7.804;2023-04-03T15:08:47;2.20;;;2.00;;
19653;SDS011;9975;48.046;7.804;2023-04-03T15:11:14;3.70;;;2.17;;
19653;SDS011;9975;48.046;7.804;2023-04-03T15:13:40;2.03;;;1.50;;
19653;SDS011;9975;48.046;7.804;2023-04-03T15:16:10;1.40;;;1.30;;
19653;SDS011;9975;48.046;7.804;2023-04-03T15:18:40;2.57;;;1.97;;
19653;SDS011;9975;48.046;7.804;2023-04-03T15:21:06;4.20;;;1.63;;
19653;SDS011;9975;48.046;7.804;2023-04-03T15:23:31;1.57;;;1.47;;
19653;SDS011;9975;48.046;7.804;2023-04-03T15:25:57;1.87;;;1.50;;
19653;SDS011;9975;48.046;7.804;2023-04-03T15:28:26;3.77;;;1.60;;
19653;SDS011;9975;48.046;7.804;2023-04-03T15:30:55;1.27;;;1.10;;
19653;SDS011;9975;48.046;7.804;2023-04-03T15:33:21;3.80;;;1.77;;
19653;SDS011;9975;48.046;7.804;2023-04-03T15:35:47;2.63;;;1.80;;
19653;SDS011;9975;48.046;7.804;2023-04-03T15:38:13;2.33;;;1.97;;
19653;SDS011;9975;48.046;7.804;2023-04-03T15:40:39;1.90;;;1.70;;
19653;SDS011;9975;48.046;7.804;2023-04-03T15:43:05;1.40;;;1.30;;
19653;SDS011;9975;48.046;7.804;2023-04-03T15:48:49;1.77;;;1.40;;
19653;SDS011;9975;48.046;7.804;2023-04-03T15:51:14;1.60;;;1.50;;
19653;SDS011;9975;48.046;7.804;2023-04-03T15:53:40;1.60;;;1.50;;
19653;SDS011;9975;48.046;7.804;2023-04-03T15:56:08;2.37;;;2.00;;
19653;SDS011;9975;48.046;7.804;2023-04-03T15:58:34;1.67;;;1.57;;
19653;SDS011;9975;48.046;7.804;2023-04-03T16:01:00;3.93;;;1.43;;
19653;SDS011;9975;48.046;7.804;2023-04-03T16:03:26;5.43;;;2.27;;
19653;SDS011;9975;48.046;7.804;2023-04-03T16:05:52;7.00;;;3.80;;
19653;SDS011;9975;48.046;7.804;2023-04-03T16:08:18;1.80;;;1.70;;
19653;SDS011;9975;48.046;7.804;2023-04-03T16:10:43;1.67;;;1.57;;
19653;SDS011;9975;48.046;7.804;2023-04-03T16:13:11;1.30;;;1.10;;
19653;SDS011;9975;48.046;7.804;2023-04-03T16:15:37;1.93;;;1.83;;
19653;SDS011;9975;48.046;7.804;2023-04-03T16:18:03;1.77;;;1.67;;
19653;SDS011;9975;48.046;7.804;2023-04-03T16:20:30;3.83;;;1.70;;
19653;SDS011;9975;48.046;7.804;2023-04-03T16:22:59;1.70;;;1.30;;
19653;SDS011;9975;48.046;7.804;2023-04-03T16:25:26;3.13;;;1.67;;
19653;SDS011;9975;48.046;7.804;2023-04-03T16:27:52;2.90;;;1.50;;
19653;SDS011;9975;48.046;7.804;2023-04-03T16:30:18;2.83;;;1.50;;
19653;SDS011;9975;48.046;7.804;2023-04-03T16:32:43;3.87;;;2.37;;
19653;SDS011;9975;48.046;7.804;2023-04-03T16:35:10;1.57;;;1.27;;
19653;SDS011;9975;48.046;7.804;2023-04-03T16:37:36;1.53;;;1.43;;
19653;SDS011;9975;48.046;7.804;2023-04-03T16:40:03;1.33;;;1.23;;
19653;SDS011;9975;48.046;7.804;2023-04-03T16:42:30;1.47;;;1.37;;
19653;SDS011;9975;48.046;7.804;2023-04-03T16:44:55;1.40;;;1.07;;
19653;SDS011;9975;48.046;7.804;2023-04-03T16:47:23;2.43;;;1.47;;
19653;SDS011;9975;48.046;7.804;2023-04-03T16:49:49;5.23;;;2.70;;
19653;SDS011;9975;48.046;7.804;2023-04-03T16:52:14;5.67;;;2.70;;
19653;SDS011;9975;48.046;7.804;2023-04-03T16:54:40;3.70;;;1.73;;
19653;SDS011;9975;48.046;7.804;2023-04-03T16:57:06;6.07;;;2.53;;
19653;SDS011;9975;48.046;7.804;2023-04-03T16:59:32;2.83;;;2.17;;
19653;SDS011;9975;48.046;7.804;2023-04-03T17:01:57;2.93;;;1.90;;
19653;SDS011;9975;48.046;7.804;2023-04-03T17:04:36;1.97;;;1.77;;
19653;SDS011;9975;48.046;7.804;2023-04-03T17:07:02;1.90;;;1.70;;
19653;SDS011;9975;48.046;7.804;2023-04-03T17:09:31;2.20;;;1.53;;
19653;SDS011;9975;48.046;7.804;2023-04-03T17:11:57;2.87;;;2.20;;
19653;SDS011;9975;48.046;7.804;2023-04-03T17:14:23;3.73;;;1.47;;
19653;SDS011;9975;48.046;7.804;2023-04-03T17:16:49;1.93;;;1.60;;
19653;SDS011;9975;48.046;7.804;2023-04-03T17:19:15;1.73;;;1.63;;
19653;SDS011;9975;48.046;7.804;2023-04-03T17:21:42;1.90;;;1.80;;
19653;SDS011;9975;48.046;7.804;2023-04-03T17:24:08;2.03;;;1.90;;
19653;SDS011;9975;48.046;7.804;2023-04-03T17:26:37;3.00;;;1.60;;
19653;SDS011;9975;48.046;7.804;2023-04-03T17:29:04;4.70;;;3.40;;
19653;SDS011;9975;48.046;7.804;2023-04-03T17:31:30;2.63;;;1.80;;
19653;SDS011;9975;48.046;7.804;2023-04-03T17:33:57;4.20;;;2.20;;
19653;SDS011;9975;48.046;7.804;2023-04-03T17:36:26;5.40;;;2.30;;
19653;SDS011;9975;48.046;7.804;2023-04-03T17:38:53;1.90;;;1.80;;
19653;SDS011;9975;48.046;7.804;2023-04-03T17:41:18;2.23;;;1.70;;
19653;SDS011;9975;48.046;7.804;2023-04-03T17:43:44;1.80;;;1.37;;
19653;SDS011;9975;48.046;7.804;2023-04-03T17:46:10;3.30;;;2.37;;
19653;SDS011;9975;48.046;7.804;2023-04-03T17:48:37;2.30;;;1.97;;
19653;SDS011;9975;48.046;7.804;2023-04-03T17:51:05;1.97;;;1.27;;
19653;SDS011;9975;48.046;7.804;2023-04-03T17:53:32;3.07;;;1.30;;
19653;SDS011;9975;48.046;7.804;2023-04-03T17:55:58;1.70;;;1.60;;
19653;SDS011;9975;48.046;7.804;2023-04-03T17:58:34;2.20;;;1.73;;
19653;SDS011;9975;48.046;7.804;2023-04-03T18:01:06;2.30;;;1.70;;
19653;SDS011;9975;48.046;7.804;2023-04-03T18:03:37;1.80;;;1.70;;
19653;SDS011;9975;48.046;7.804;2023-04-03T18:06:04;2.83;;;1.57;;
19653;SDS011;9975;48.046;7.804;2023-04-03T18:08:42;2.40;;;1.50;;
19653;SDS011;9975;48.046;7.804;2023-04-03T18:11:16;1.77;;;1.33;;
19653;SDS011;9975;48.046;7.804;2023-04-03T18:13:43;1.40;;;1.30;;
19653;SDS011;9975;48.046;7.804;2023-04-03T18:16:11;1.97;;;1.67;;
19653;SDS011;9975;48.046;7.804;2023-04-03T18:18:38;2.30;;;2.10;;
19653;SDS011;9975;48.046;7.804;2023-04-03T18:21:05;3.67;;;2.40;;
19653;SDS011;9975;48.046;7.804;2023-04-03T18:23:33;1.73;;;1.60;;
19653;SDS011;9975;48.046;7.804;2023-04-03T18:26:03;2.50;;;2.30;;
19653;SDS011;9975;48.046;7.804;2023-04-03T18:28:32;5.43;;;3.97;;
19653;SDS011;9975;48.046;7.804;2023-04-03T18:30:57;5.57;;;3.60;;
19653;SDS011;9975;48.046;7.804;2023-04-03T18:33:24;5.70;;;3.40;;
19653;SDS011;9975;48.046;7.804;2023-04-03T18:35:50;7.13;;;3.60;;
19653;SDS011;9975;48.046;7.804;2023-04-03T18:38:15;4.37;;;2.50;;
19653;SDS011;9975;48.046;7.804;2023-04-03T18:40:41;7.90;;;2.40;;
19653;SDS011;9975;48.046;7.804;2023-04-03T18:43:09;4.50;;;2.50;;
19653;SDS011;9975;48.046;7.804;2023-04-03T18:45:35;3.30;;;2.90;;
19653;SDS011;9975;48.046;7.804;2023-04-03T18:48:01;4.20;;;2.87;;
19653;SDS011;9975;48.046;7.804;2023-04-03T18:50:27;4.63;;;2.43;;
19653;SDS011;9975;48.046;7.804;2023-04-03T18:52:53;3.40;;;2.70;;
19653;SDS011;9975;48.046;7.804;2023-04-03T18:55:18;5.00;;;3.50;;
19653;SDS011;9975;48.046;7.804;2023-04-03T18:57:45;5.93;;;3.60;;
19653;SDS011;9975;48.046;7.804;2023-04-03T19:00:12;4.33;;;3.47;;
19653;SDS011;9975;48.046;7.804;2023-04-03T19:02:38;4.30;;;3.20;;
19653;SDS011;9975;48.046;7.804;2023-04-03T19:05:05;3.30;;;2.80;;
19653;SDS011;9975;48.046;7.804;2023-04-03T19:07:32;1.90;;;1.63;;
19653;SDS011;9975;48.046;7.804;2023-04-03T19:09:58;3.40;;;2.80;;
19653;SDS011;9975;48.046;7.804;2023-04-03T19:12:24;2.20;;;1.97;;
19653;SDS011;9975;48.046;7.804;2023-04-03T19:14:50;2.97;;;1.83;;
19653;SDS011;9975;48.046;7.804;2023-04-03T19:17:16;2.93;;;2.70;;
19653;SDS011;9975;48.046;7.804;2023-04-03T19:19:42;3.17;;;2.87;;
19653;SDS011;9975;48.046;7.804;2023-04-03T19:22:07;2.20;;;1.67;;
19653;SDS011;9975;48.046;7.804;2023-04-03T19:24:33;2.30;;;1.90;;
19653;SDS011;9975;48.046;7.804;2023-04-03T19:26:59;3.00;;;2.20;;
19653;SDS011;9975;48.046;7.804;2023-04-03T19:29:25;2.93;;;1.83;;
19653;SDS011;9975;48.046;7.804;2023-04-03T19:31:51;3.10;;;1.80;;
19653;SDS011;9975;48.046;7.804;2023-04-03T19:34:16;4.37;;;2.07;;
19653;SDS011;9975;48.046;7.804;2023-04-03T19:36:42;9.33;;;2.93;;
19653;SDS011;9975;48.046;7.804;2023-04-03T19:39:09;3.93;;;2.00;;
19653;SDS011;9975;48.046;7.804;2023-04-03T19:41:36;5.93;;;1.70;;
19653;SDS011;9975;48.046;7.804;2023-04-03T19:44:05;2.00;;;1.77;;